Página principal
METAR-TAF:

METAR-TAF

Aeroportos :

Akureyri, Islândia

latitude: 65-41N, longitude: 018-05W, altura: 23 m

Observação actual do tempo

O boletim foi feito há 22 minutos, às 10:00 UTC
Vento 10 kt de norte
Temperatura 10°C
Humidade 87%
Pressão 986 hPa
Visibilidade 10 km ou mais
Poucas nuvensa uma altura de 900 ft
Encobertoa uma altura de 2600 ft
aguaceiros fracos de chuva

METAR: BIAR 191000Z 35010KT 9999 -SHRA FEW009 OVC026 10/08 Q0986

Hora: 10:22 (10:22 UTC)

Previsão

O boletim foi feito há 2 horas e 44 minutos, às 07:38 UTC
Previsão válida de 19 às 09 UTC a 20 às 09 UTC
Vento 10 kt de nor-noroeste
Visibilidade 10 km ou mais
Nuvens fragmentadasa uma altura de 3000 ft
Temporariamente
de 19 às 09 UTC a 20 às 09 UTC
Visibilidade: 4000 m
Nuvens fragmentadasa uma altura de 1400 ft
aguaceiros de chuva

TAF: BIAR 190738Z 1909/2009 34010KT 9999 BKN030 TX11/1915Z TN08/2006Z TEMPO 1909/2009 4000 SHRA BKN014

Observações e previsões do tempo de mais de 4000 aeroportos (mensagens METAR e TAF).

As estações disponíveis são os pontos amarelos e vermelhos sobre o mapa.

Mova o rato sobre o mapa para ver o nome da estação.

Depois clique no ponto para visualizar as observações e previsões meteorológicas.

Para alterar o mapa : clique nos botões verdes com uma cruz preta para aumentar o zoom; no botão verde com uma pitada de zoom; ou nas setas verdes para mapas adjacentes.


METAR-TAF: